Flight Track Log - Related Links

Times and Time Zones

All times are in EDT time to prevent confusion due to time zone crossing. See the UAL4843 flight status page for this flight to view local times or setup timezone preferences in your user account.

Time Position Orientation Groundspeed Altitude Reporting Facility
EDT Latitude Longitude Course Direction KTS MPH feet Rate Location/Type
Thu 11:48:10 AM 41.9311 -72.7025 227° Southwest 130 150 800  Level Boston Center
Thu 11:49:19 AM 41.8997 -72.7469 227° Southwest 142 163 2,400 1,569 Climbing Boston Center
Thu 11:50:20 AM 41.8706 -72.7886 227° Southwest 156 180 4,200 1,636 Climbing Boston Center
Thu 11:51:20 AM 41.8289 -72.7856 177° South 147 169 5,700 893 Climbing Boston Center
Thu 11:52:21 AM 41.7767 -72.7714 169° South 190 219 6,000 149 Climbing Boston Center
Thu 11:53:21 AM 41.7183 -72.7683 178° South 218 251 6,000  Level Boston Center
Thu 11:55:44 AM 41.6000 -72.8667 212° Southwest 223 257 6,000  Level New York TRACON
Thu 11:56:44 AM 41.5667 -72.9333 236° Southwest 219 252 6,000  Level New York TRACON
Thu 11:57:44 AM 41.5333 -73.0000 236° Southwest 222 255 6,000  Level New York TRACON
Thu 11:58:44 AM 41.5000 -73.0667 236° Southwest 221 254 6,000  Level New York TRACON
Thu 11:59:44 AM 41.4667 -73.1500 242° Southwest 222 255 6,000  Level New York TRACON
Thu 12:00:44 PM 41.4333 -73.2167 236° Southwest 220 253 6,000  Level New York TRACON
Thu 12:01:44 PM 41.4000 -73.2833 236° Southwest 219 252 6,000  Level New York TRACON
Thu 12:02:44 PM 41.3667 -73.3500 236° Southwest 217 250 6,000 -250 Level New York TRACON
Thu 12:03:44 PM 41.3333 -73.4167 236° Southwest 227 261 5,500 -500 Descending New York TRACON
Thu 12:04:44 PM 41.3000 -73.5000 242° Southwest 226 260 5,000 -250 Descending New York TRACON
Thu 12:05:44 PM 41.2833 -73.5667 252° West 215 247 5,000  Level New York TRACON
Thu 12:06:44 PM 41.2667 -73.6500 255° West 219 252 5,000  Level New York TRACON
Thu 12:07:44 PM 41.2667 -73.7333 270° West 221 254 5,000  Level New York TRACON
Thu 12:08:44 PM 41.2500 -73.8167 255° West 225 259 5,000  Level New York TRACON
Thu 12:09:44 PM 41.2500 -73.9000 270° West 225 259 5,000  Level New York TRACON
Thu 12:10:44 PM 41.2333 -73.9833 255° West 225 259 5,000  Level New York TRACON
Thu 12:11:44 PM 41.2333 -74.0667 270° West 221 254 5,000  Level New York TRACON
Thu 12:12:44 PM 41.2333 -74.1333 270° West 223 257 5,000  Level New York TRACON
Thu 12:13:44 PM 41.2167 -74.2167 255° West 215 247 5,000  Level New York TRACON
Thu 12:14:44 PM 41.2167 -74.2833 270° West 184 212 5,000  Level New York TRACON
Thu 12:15:44 PM 41.2000 -74.3500 252° West 161 185 5,000  Level New York TRACON
Thu 12:16:44 PM 41.1667 -74.3500 180° South 168 193 5,000  Level New York TRACON
Thu 12:17:44 PM 41.1333 -74.3167 143° Southeast 181 208 5,000  Level New York TRACON
Thu 12:18:38 PM 41.1000 -74.2833 143° Southeast 178 205 5,000  Level New York TRACON
Thu 12:19:44 PM 41.0667 -74.2167 124° Southeast 171 197 5,000  Level New York TRACON
Thu 12:20:44 PM 41.0333 -74.1667 131° Southeast 163 188 5,000  Level New York TRACON
Thu 12:21:44 PM 41.0167 -74.1333 124° Southeast 160 184 5,000 -150 Level New York TRACON
Thu 12:22:44 PM 40.9833 -74.1000 143° Southeast 150 173 4,700 -500 Descending New York TRACON
Thu 12:23:44 PM 40.9333 -74.0833 166° South 137 158 4,000 -350 Descending New York TRACON
Thu 12:24:44 PM 40.9000 -74.0667 159° South 156 180 4,000 -158 Level New York TRACON
Thu 12:25:38 PM 40.8667 -74.0667 180° South 165 190 3,700 -700 Descending New York TRACON
Thu 12:26:44 PM 40.8167 -74.0833 194° South 175 201 2,600 -850 Descending New York TRACON
Thu 12:27:38 PM 40.7833 -74.1167 217° Southwest 141 162 2,000 -737 Descending New York TRACON
Thu 12:28:38 PM 40.7500 -74.1333 201° Southwest 140 161 1,200 -800 Descending New York TRACON
Thu 12:29:38 PM 40.7167 -74.1500 201° Southwest 122 140 400 -800 Descending New York TRACON

Login

Don't have an account? Register now (free) for customized features, flight alerts, and more!